createdAt,value
2017-11-30T00:00:39.591Z,4.90
2017-11-30T00:03:07.922Z,4.90
2017-11-30T00:05:35.571Z,5.00
2017-11-30T00:08:03.171Z,5.00
2017-11-30T00:10:31.487Z,5.00
2017-11-30T00:12:59.325Z,4.90
2017-11-30T00:15:28.084Z,4.80
2017-11-30T00:17:56.692Z,4.70
2017-11-30T00:20:24.959Z,4.60
2017-11-30T00:22:53.835Z,4.30
2017-11-30T00:25:23.144Z,4.30
2017-11-30T00:27:52.168Z,4.20
2017-11-30T00:30:20.003Z,4.10
2017-11-30T00:32:47.858Z,4.00
2017-11-30T00:35:16.340Z,3.80
2017-11-30T00:37:44.331Z,3.80
2017-11-30T00:40:12.999Z,3.70
2017-11-30T00:42:53.148Z,3.70
2017-11-30T00:45:22.205Z,3.70
2017-11-30T00:47:50.336Z,3.70
2017-11-30T00:50:18.596Z,3.80
2017-11-30T00:52:47.108Z,3.90
2017-11-30T00:55:15.149Z,4.00
2017-11-30T00:57:43.790Z,4.20
2017-11-30T01:00:13.217Z,4.40
2017-11-30T01:02:40.962Z,4.40
2017-11-30T01:05:09.614Z,4.50
2017-11-30T01:07:37.911Z,4.60
2017-11-30T01:10:06.358Z,4.70
2017-11-30T01:12:35.154Z,4.80
2017-11-30T01:15:03.009Z,4.70
2017-11-30T01:17:31.279Z,4.80
2017-11-30T01:20:01.932Z,4.80
2017-11-30T01:22:30.294Z,4.80
2017-11-30T01:24:58.490Z,4.80
2017-11-30T01:27:27.322Z,4.80
2017-11-30T01:29:55.663Z,4.80
2017-11-30T01:32:24.663Z,4.80
2017-11-30T01:34:53.720Z,4.60
2017-11-30T01:37:22.199Z,4.60
2017-11-30T01:39:51.301Z,4.50
2017-11-30T01:42:20.287Z,4.40
2017-11-30T01:44:48.681Z,4.40
2017-11-30T01:47:16.376Z,4.30
2017-11-30T01:49:43.970Z,4.40
2017-11-30T01:52:11.581Z,4.30
2017-11-30T01:54:39.772Z,4.30
2017-11-30T01:57:08.177Z,4.20
2017-11-30T01:59:35.746Z,4.10
2017-11-30T02:02:03.345Z,4.10
2017-11-30T02:04:30.905Z,4.10
2017-11-30T02:06:58.532Z,4.20
2017-11-30T02:09:26.121Z,4.20
2017-11-30T02:11:53.832Z,4.30
2017-11-30T02:14:21.417Z,4.30
2017-11-30T02:16:49.371Z,4.30
2017-11-30T02:19:16.964Z,4.30
2017-11-30T02:21:44.530Z,4.40
2017-11-30T02:24:12.133Z,4.40
2017-11-30T02:26:39.723Z,4.50
2017-11-30T02:29:07.332Z,4.50
2017-11-30T02:31:34.907Z,4.50
2017-11-30T02:34:03.300Z,4.40
2017-11-30T02:36:31.395Z,4.30
2017-11-30T02:38:59.287Z,4.20
2017-11-30T02:41:27.186Z,4.10
2017-11-30T02:43:54.796Z,3.90
2017-11-30T02:46:22.398Z,3.90
2017-11-30T02:48:50.035Z,3.80
2017-11-30T02:51:17.630Z,3.80
2017-11-30T02:53:45.208Z,3.90
2017-11-30T02:56:13.613Z,4.00
2017-11-30T02:58:41.195Z,4.00
2017-11-30T03:01:08.832Z,4.00
2017-11-30T03:03:36.478Z,4.00
2017-11-30T03:06:04.812Z,4.00
2017-11-30T03:08:32.426Z,3.90
2017-11-30T03:11:00.008Z,3.90
2017-11-30T03:13:27.574Z,3.90
2017-11-30T03:15:55.138Z,3.80
2017-11-30T03:18:22.775Z,3.80
2017-11-30T03:20:50.358Z,3.90
2017-11-30T03:23:18.734Z,3.80
2017-11-30T03:25:46.375Z,3.90
2017-11-30T03:28:14.145Z,4.00
2017-11-30T03:30:42.791Z,4.10
2017-11-30T03:33:10.413Z,4.10
2017-11-30T03:35:37.997Z,4.20
2017-11-30T03:38:06.454Z,4.40
2017-11-30T03:40:34.009Z,4.40
2017-11-30T03:43:01.640Z,4.40
2017-11-30T03:45:29.380Z,4.40
2017-11-30T03:47:56.984Z,4.40
2017-11-30T03:50:24.632Z,4.40
2017-11-30T03:52:52.972Z,4.40
2017-11-30T03:55:21.383Z,4.40
2017-11-30T03:57:49.861Z,4.40
2017-11-30T04:00:17.471Z,4.40
2017-11-30T04:02:45.292Z,4.50
2017-11-30T04:05:12.869Z,4.40
2017-11-30T04:07:40.485Z,4.40
2017-11-30T04:10:08.089Z,4.30
2017-11-30T04:12:35.688Z,4.20
2017-11-30T04:15:03.261Z,4.30
2017-11-30T04:17:30.919Z,4.30
2017-11-30T04:19:58.506Z,4.30
2017-11-30T04:22:26.848Z,4.20
2017-11-30T04:24:54.541Z,4.10
2017-11-30T04:27:22.108Z,4.10
2017-11-30T04:29:50.481Z,4.30
2017-11-30T04:32:18.840Z,4.40
2017-11-30T04:34:46.448Z,4.40
2017-11-30T04:37:14.083Z,4.50
2017-11-30T04:39:41.804Z,4.60
2017-11-30T04:42:09.413Z,4.60
2017-11-30T04:44:37.163Z,4.50
2017-11-30T04:47:05.076Z,4.50
2017-11-30T04:49:32.633Z,4.40
2017-11-30T04:52:00.265Z,4.30
2017-11-30T04:54:27.844Z,4.20
2017-11-30T04:56:56.157Z,4.10
2017-11-30T04:59:23.758Z,4.00
2017-11-30T05:01:51.336Z,4.00
2017-11-30T05:04:19.086Z,4.10
2017-11-30T05:06:47.427Z,4.20
2017-11-30T05:09:14.996Z,4.20
2017-11-30T05:11:43.114Z,4.30
2017-11-30T05:14:10.687Z,4.40
2017-11-30T05:16:38.283Z,4.40
2017-11-30T05:19:05.847Z,4.40
2017-11-30T05:21:33.477Z,4.50
2017-11-30T05:24:01.318Z,4.50
2017-11-30T05:26:29.651Z,4.70
2017-11-30T05:28:57.252Z,4.60
2017-11-30T05:31:25.579Z,4.80
2017-11-30T05:33:53.211Z,4.80
2017-11-30T05:36:20.801Z,4.80
2017-11-30T05:38:48.440Z,4.90
2017-11-30T05:41:16.074Z,4.90
2017-11-30T05:43:44.425Z,4.90
2017-11-30T05:46:12.070Z,4.90
2017-11-30T05:48:39.643Z,4.90
2017-11-30T05:51:08.033Z,4.90
2017-11-30T05:53:35.761Z,5.00
2017-11-30T05:56:04.059Z,5.00
2017-11-30T05:58:31.697Z,5.00
2017-11-30T06:00:59.396Z,5.00
2017-11-30T06:03:27.023Z,5.00
2017-11-30T06:05:54.663Z,5.00
2017-11-30T06:08:22.241Z,5.10
2017-11-30T06:10:49.805Z,5.10
2017-11-30T06:13:17.601Z,5.10
2017-11-30T06:15:46.080Z,5.10
2017-11-30T06:18:13.663Z,5.20
2017-11-30T06:20:41.264Z,5.30
2017-11-30T06:23:08.939Z,5.30
2017-11-30T06:25:36.522Z,5.30
2017-11-30T06:28:04.102Z,5.30
2017-11-30T06:30:31.738Z,5.30
2017-11-30T06:32:59.308Z,5.20
2017-11-30T06:35:26.910Z,5.30
2017-11-30T06:37:54.800Z,5.30
2017-11-30T06:40:22.418Z,5.30
2017-11-30T06:42:50.762Z,5.50
2017-11-30T06:45:18.521Z,5.50
2017-11-30T06:47:46.111Z,5.40
2017-11-30T06:50:14.477Z,5.40
2017-11-30T06:52:42.071Z,5.40
2017-11-30T06:55:09.880Z,5.30
2017-11-30T06:57:37.466Z,5.30
2017-11-30T07:00:05.116Z,5.20
2017-11-30T07:02:32.721Z,5.20
2017-11-30T07:05:00.288Z,5.20
2017-11-30T07:07:27.885Z,5.10
2017-11-30T07:09:55.447Z,5.10
2017-11-30T07:12:23.041Z,5.10
2017-11-30T07:14:50.625Z,5.10
2017-11-30T07:17:18.348Z,5.10
2017-11-30T07:19:45.948Z,5.10
2017-11-30T07:22:14.377Z,5.20
2017-11-30T07:24:42.001Z,5.10
2017-11-30T07:27:09.610Z,5.10
2017-11-30T07:29:37.863Z,5.10
2017-11-30T07:32:05.506Z,5.10
2017-11-30T07:34:33.123Z,5.20
2017-11-30T07:37:00.763Z,5.20
2017-11-30T07:39:28.336Z,5.20
2017-11-30T07:41:55.954Z,5.10
2017-11-30T07:44:23.529Z,5.20
2017-11-30T07:46:51.203Z,5.20
2017-11-30T07:49:18.988Z,5.20
2017-11-30T07:51:46.721Z,5.10
2017-11-30T07:54:14.496Z,5.10
2017-11-30T07:56:42.181Z,5.10
2017-11-30T07:59:09.816Z,5.10
2017-11-30T08:01:37.413Z,5.00
2017-11-30T08:04:06.372Z,5.10
2017-11-30T08:06:34.204Z,5.10
2017-11-30T08:09:01.791Z,5.20
2017-11-30T08:11:30.274Z,5.30
2017-11-30T08:13:59.115Z,5.40
2017-11-30T08:16:27.500Z,5.70
2017-11-30T08:18:55.178Z,5.70
2017-11-30T08:21:22.752Z,5.80
2017-11-30T08:23:50.443Z,5.90
2017-11-30T08:26:18.088Z,5.90
2017-11-30T08:28:46.263Z,5.90
2017-11-30T08:31:13.941Z,5.70
2017-11-30T08:33:41.520Z,5.70
2017-11-30T08:36:09.112Z,5.50
2017-11-30T08:38:37.556Z,5.30
2017-11-30T08:41:05.203Z,5.30
2017-11-30T08:43:32.863Z,5.20
2017-11-30T08:46:00.597Z,5.10
2017-11-30T08:48:28.166Z,5.00
2017-11-30T08:50:55.937Z,5.10
2017-11-30T08:53:23.720Z,5.00
2017-11-30T08:55:51.321Z,5.10
2017-11-30T08:58:18.929Z,5.10
2017-11-30T09:00:46.514Z,5.00
2017-11-30T09:03:14.975Z,5.00
2017-11-30T09:05:42.573Z,5.00
2017-11-30T09:08:10.176Z,5.00
2017-11-30T09:10:37.777Z,5.10
2017-11-30T09:13:05.411Z,5.20
2017-11-30T09:15:33.393Z,5.30
2017-11-30T09:18:01.150Z,5.30
2017-11-30T09:20:28.732Z,5.40
2017-11-30T09:22:56.294Z,5.40
2017-11-30T09:25:24.447Z,5.50
2017-11-30T09:27:52.175Z,5.50
2017-11-30T09:30:19.782Z,5.60
2017-11-30T09:32:47.449Z,5.60
2017-11-30T09:35:15.083Z,5.60
2017-11-30T09:37:42.694Z,5.60
2017-11-30T09:40:10.302Z,5.60
2017-11-30T09:42:37.878Z,5.60
2017-11-30T09:45:05.497Z,5.60
2017-11-30T09:47:34.037Z,5.60
2017-11-30T09:50:01.639Z,5.60
2017-11-30T09:52:30.028Z,5.60
2017-11-30T09:54:57.612Z,5.60
2017-11-30T09:57:25.181Z,5.60
2017-11-30T09:59:52.805Z,5.60
2017-11-30T10:02:21.222Z,5.50
2017-11-30T10:04:48.808Z,5.50
2017-11-30T10:07:16.447Z,5.50
2017-11-30T10:09:44.064Z,5.60
2017-11-30T10:12:12.402Z,5.70
2017-11-30T10:14:39.997Z,5.70
2017-11-30T10:17:07.705Z,5.80
2017-11-30T10:19:35.376Z,5.90
2017-11-30T10:22:02.995Z,6.00
2017-11-30T10:24:30.582Z,6.00
2017-11-30T10:26:58.148Z,6.00
2017-11-30T10:29:25.720Z,6.10
2017-11-30T10:31:53.353Z,6.10
2017-11-30T10:34:20.920Z,6.20
2017-11-30T10:36:48.491Z,6.20
2017-11-30T10:39:16.083Z,6.30
2017-11-30T10:41:43.676Z,6.50
2017-11-30T10:44:12.071Z,7.00
2017-11-30T10:46:39.859Z,7.00
2017-11-30T10:49:07.425Z,7.10
2017-11-30T10:51:34.995Z,7.00
2017-11-30T10:54:02.737Z,6.90
2017-11-30T10:56:30.503Z,6.80
2017-11-30T10:58:58.220Z,6.70
2017-11-30T11:01:26.594Z,6.60
2017-11-30T11:03:55.850Z,6.60
2017-11-30T11:06:23.490Z,6.60
2017-11-30T11:08:51.128Z,6.60
2017-11-30T11:11:19.497Z,6.80
2017-11-30T11:13:47.128Z,6.80
2017-11-30T11:16:14.815Z,7.00
2017-11-30T11:18:42.465Z,7.30
2017-11-30T11:21:10.236Z,7.40
2017-11-30T11:23:37.809Z,7.60
2017-11-30T11:26:05.579Z,7.70
2017-11-30T11:28:33.514Z,7.80
2017-11-30T11:31:01.216Z,8.00
2017-11-30T11:33:29.839Z,8.10
2017-11-30T11:35:57.872Z,8.10
2017-11-30T11:38:26.526Z,8.10
2017-11-30T11:40:55.114Z,8.10
2017-11-30T11:43:24.490Z,8.10
2017-11-30T11:45:52.069Z,8.00
2017-11-30T11:48:19.797Z,8.10
2017-11-30T11:50:47.470Z,8.10
2017-11-30T11:53:15.664Z,8.10
2017-11-30T11:55:43.460Z,8.10
2017-11-30T11:58:11.606Z,8.10
2017-11-30T12:00:39.245Z,8.20
2017-11-30T12:03:07.910Z,8.20
2017-11-30T12:05:35.502Z,8.20
2017-11-30T12:08:03.114Z,8.20
2017-11-30T12:10:31.455Z,8.30
2017-11-30T12:12:59.261Z,8.20
2017-11-30T12:15:27.162Z,8.30
2017-11-30T12:17:54.786Z,8.30
2017-11-30T12:20:23.467Z,8.10
2017-11-30T12:22:51.322Z,8.10
2017-11-30T12:25:19.782Z,7.70
2017-11-30T12:27:47.539Z,7.70
2017-11-30T12:30:15.539Z,7.50
2017-11-30T12:32:43.437Z,7.30
2017-11-30T12:35:12.249Z,6.90
2017-11-30T12:37:39.912Z,6.90
2017-11-30T12:40:07.773Z,6.80
2017-11-30T12:42:35.577Z,6.70
2017-11-30T12:45:03.322Z,6.60
2017-11-30T12:47:31.157Z,6.50
2017-11-30T12:49:58.944Z,6.40
2017-11-30T12:52:27.661Z,6.50
2017-11-30T12:54:56.210Z,6.60
2017-11-30T12:57:25.435Z,6.80
2017-11-30T12:59:53.981Z,7.00
2017-11-30T13:02:21.893Z,7.20
2017-11-30T13:04:50.121Z,7.20
2017-11-30T13:07:18.417Z,7.20
2017-11-30T13:09:46.507Z,7.10
2017-11-30T13:12:14.319Z,7.00
2017-11-30T13:14:42.532Z,7.00
2017-11-30T13:17:11.111Z,7.00
2017-11-30T13:19:39.609Z,7.00
2017-11-30T13:22:07.434Z,7.00
2017-11-30T13:24:35.459Z,6.90
2017-11-30T13:27:04.886Z,6.90
2017-11-30T13:29:32.784Z,6.80
2017-11-30T13:32:01.558Z,6.70
2017-11-30T13:34:29.184Z,6.60
2017-11-30T13:36:56.794Z,6.50
2017-11-30T13:39:25.387Z,6.40
2017-11-30T13:41:53.216Z,6.20
2017-11-30T13:44:20.929Z,6.10
2017-11-30T13:46:48.527Z,6.00
2017-11-30T13:49:16.553Z,6.00
2017-11-30T13:51:44.216Z,5.90
2017-11-30T13:54:12.082Z,6.00
2017-11-30T13:56:39.681Z,6.00
2017-11-30T13:59:07.555Z,6.00
2017-11-30T14:01:35.380Z,6.20
2017-11-30T14:04:02.997Z,6.20
2017-11-30T14:06:31.363Z,6.20
2017-11-30T14:08:59.079Z,6.20
2017-11-30T14:11:28.256Z,6.20
2017-11-30T14:13:56.198Z,6.20
2017-11-30T14:16:25.051Z,6.10
2017-11-30T14:18:54.044Z,6.10
2017-11-30T14:21:22.106Z,6.00
2017-11-30T14:23:51.799Z,5.90
2017-11-30T14:26:20.638Z,5.70
2017-11-30T14:28:50.439Z,5.30
2017-11-30T14:31:19.716Z,5.40
2017-11-30T14:33:47.894Z,5.10
2017-11-30T14:36:16.403Z,4.80
2017-11-30T14:38:44.452Z,4.60
2017-11-30T14:41:12.618Z,4.50
2017-11-30T14:43:41.169Z,4.40
2017-11-30T14:46:09.515Z,4.50
2017-11-30T14:48:38.464Z,4.60
2017-11-30T14:51:07.036Z,4.60
2017-11-30T14:53:35.102Z,4.70
2017-11-30T14:56:03.208Z,4.60
2017-11-30T14:58:31.384Z,4.50
2017-11-30T15:00:59.937Z,4.50
2017-11-30T15:03:28.447Z,4.50
2017-11-30T15:05:57.023Z,4.50
2017-11-30T15:08:25.106Z,4.60
2017-11-30T15:10:54.039Z,4.70
2017-11-30T15:13:22.804Z,4.70
2017-11-30T15:15:50.503Z,4.70
2017-11-30T15:18:18.326Z,4.60
2017-11-30T15:20:46.331Z,4.60
2017-11-30T15:23:14.823Z,4.60
2017-11-30T15:25:42.730Z,4.60
2017-11-30T15:28:10.694Z,4.70
2017-11-30T15:30:38.585Z,4.70
2017-11-30T15:33:06.529Z,4.80
2017-11-30T15:35:34.417Z,4.80
2017-11-30T15:38:02.264Z,4.90
2017-11-30T15:40:29.971Z,4.90
2017-11-30T15:42:57.850Z,4.80
2017-11-30T15:45:26.366Z,5.00
2017-11-30T15:47:54.072Z,4.90
2017-11-30T15:50:22.131Z,4.90
2017-11-30T15:52:49.908Z,4.70
2017-11-30T15:55:17.748Z,4.60
2017-11-30T15:57:45.634Z,4.70
2017-11-30T16:00:13.584Z,4.80
2017-11-30T16:02:41.431Z,4.70
2017-11-30T16:05:09.259Z,4.70
2017-11-30T16:07:37.199Z,4.70
2017-11-30T16:10:05.055Z,4.70
2017-11-30T16:12:32.768Z,4.70
2017-11-30T16:15:00.513Z,4.70
2017-11-30T16:17:28.376Z,4.70
2017-11-30T16:19:56.106Z,4.60
2017-11-30T16:22:24.086Z,4.60
2017-11-30T16:24:51.987Z,4.50
2017-11-30T16:27:19.921Z,4.50
2017-11-30T16:29:47.787Z,4.50
2017-11-30T16:32:16.189Z,4.50
2017-11-30T16:34:44.204Z,4.50
2017-11-30T16:37:12.845Z,4.60
2017-11-30T16:39:40.448Z,4.60
2017-11-30T16:42:09.031Z,4.80
2017-11-30T16:44:36.643Z,4.70
2017-11-30T16:47:04.319Z,4.80
2017-11-30T16:49:32.770Z,4.80
2017-11-30T16:52:00.467Z,4.90
2017-11-30T16:54:28.040Z,4.90
2017-11-30T16:56:55.916Z,5.00
2017-11-30T16:59:24.288Z,4.90
2017-11-30T17:01:53.459Z,4.80
2017-11-30T17:04:21.102Z,4.80
2017-11-30T17:06:48.777Z,4.80
2017-11-30T17:09:16.513Z,4.90
2017-11-30T17:11:44.244Z,5.00
2017-11-30T17:14:11.928Z,4.90
2017-11-30T17:16:39.644Z,4.90
2017-11-30T17:19:07.522Z,4.80
2017-11-30T17:21:36.412Z,4.60
2017-11-30T17:24:04.102Z,4.60
2017-11-30T17:26:31.727Z,4.60
2017-11-30T17:28:59.391Z,4.50
2017-11-30T17:31:27.077Z,4.50
2017-11-30T17:33:56.397Z,4.40
2017-11-30T17:36:24.268Z,4.40
2017-11-30T17:38:52.118Z,4.40
2017-11-30T17:41:20.757Z,4.50
2017-11-30T17:43:48.352Z,4.50
2017-11-30T17:46:17.214Z,4.50
2017-11-30T17:48:45.182Z,4.50
2017-11-30T17:51:12.822Z,4.40
2017-11-30T17:53:40.587Z,4.30
2017-11-30T17:56:08.319Z,4.30
2017-11-30T17:58:35.938Z,4.40
2017-11-30T18:01:03.783Z,4.40
2017-11-30T18:03:31.659Z,4.50
2017-11-30T18:05:59.305Z,4.40
2017-11-30T18:08:26.917Z,4.40
2017-11-30T18:10:55.571Z,4.30
2017-11-30T18:13:26.695Z,4.20
2017-11-30T18:15:54.464Z,4.20
2017-11-30T18:18:22.460Z,4.20
2017-11-30T18:20:52.961Z,4.30
2017-11-30T18:23:20.616Z,4.40
2017-11-30T18:25:48.617Z,4.40
2017-11-30T18:28:16.665Z,4.50
2017-11-30T18:30:44.555Z,4.50
2017-11-30T18:33:12.411Z,4.50
2017-11-30T18:35:40.031Z,4.50
2017-11-30T18:38:08.753Z,4.50
2017-11-30T18:40:36.426Z,4.50
2017-11-30T18:43:04.291Z,4.50
2017-11-30T18:45:32.241Z,4.50
2017-11-30T18:47:59.926Z,4.40
2017-11-30T18:50:27.668Z,4.30
2017-11-30T18:52:55.347Z,4.30
2017-11-30T18:55:23.161Z,4.30
2017-11-30T18:57:51.245Z,4.20
2017-11-30T19:00:19.045Z,4.10
2017-11-30T19:02:46.940Z,4.10
2017-11-30T19:05:14.664Z,4.00
2017-11-30T19:07:42.274Z,3.90
2017-11-30T19:10:10.744Z,3.80
2017-11-30T19:12:39.289Z,3.70
2017-11-30T19:15:07.168Z,3.70
2017-11-30T19:17:34.856Z,3.60
2017-11-30T19:20:02.679Z,3.60
2017-11-30T19:22:30.476Z,3.50
2017-11-30T19:24:58.340Z,3.50
2017-11-30T19:27:26.232Z,3.40
2017-11-30T19:29:54.708Z,3.30
2017-11-30T19:32:22.407Z,3.20
2017-11-30T19:34:50.272Z,3.20
2017-11-30T19:37:18.299Z,3.20
2017-11-30T19:39:45.914Z,3.10
2017-11-30T19:42:13.513Z,3.10
2017-11-30T19:44:41.138Z,3.10
2017-11-30T19:47:09.043Z,3.10
2017-11-30T19:49:37.355Z,3.10
2017-11-30T19:52:05.152Z,3.20
2017-11-30T19:54:32.907Z,3.20
2017-11-30T19:57:00.718Z,3.20
2017-11-30T19:59:28.457Z,3.20
2017-11-30T20:01:56.324Z,3.20
2017-11-30T20:04:23.986Z,3.20
2017-11-30T20:06:51.563Z,3.10
2017-11-30T20:09:19.180Z,3.20
2017-11-30T20:11:46.777Z,3.10
2017-11-30T20:14:14.430Z,3.10
2017-11-30T20:16:42.594Z,3.10
2017-11-30T20:19:10.255Z,3.20
2017-11-30T20:21:37.946Z,3.20
2017-11-30T20:24:05.693Z,3.20
2017-11-30T20:26:33.376Z,3.20
2017-11-30T20:29:00.948Z,3.20
2017-11-30T20:31:28.570Z,3.20
2017-11-30T20:33:56.189Z,3.30
2017-11-30T20:36:23.791Z,3.30
2017-11-30T20:38:51.868Z,3.30
2017-11-30T20:41:19.458Z,3.20
2017-11-30T20:43:47.090Z,3.10
2017-11-30T20:46:15.334Z,3.10
2017-11-30T20:48:43.235Z,3.20
2017-11-30T20:51:11.018Z,3.20
2017-11-30T20:53:38.664Z,3.20
2017-11-30T20:56:06.326Z,3.30
2017-11-30T20:58:33.986Z,3.20
2017-11-30T21:01:01.752Z,3.20
2017-11-30T21:03:29.746Z,3.20
2017-11-30T21:05:57.535Z,3.20
2017-11-30T21:08:25.137Z,3.20
2017-11-30T21:10:52.730Z,3.30
2017-11-30T21:13:20.523Z,3.30
2017-11-30T21:15:49.371Z,3.40
2017-11-30T21:18:18.719Z,3.40
2017-11-30T21:20:47.100Z,3.40
2017-11-30T21:23:14.920Z,3.40
2017-11-30T21:25:42.766Z,3.50
2017-11-30T21:28:10.555Z,3.60
2017-11-30T21:30:38.190Z,3.60
2017-11-30T21:33:06.313Z,3.50
2017-11-30T21:35:34.706Z,3.50
2017-11-30T21:38:02.316Z,3.40
2017-11-30T21:40:30.507Z,3.50
2017-11-30T21:42:58.667Z,3.50
2017-11-30T21:45:27.083Z,3.50
2017-11-30T21:47:54.988Z,3.50
2017-11-30T21:50:22.858Z,3.60
2017-11-30T21:52:50.687Z,3.60
2017-11-30T21:55:19.535Z,3.60
2017-11-30T21:57:47.479Z,3.60
2017-11-30T22:00:16.396Z,3.70
2017-11-30T22:02:44.264Z,3.70
2017-11-30T22:05:12.209Z,3.80
2017-11-30T22:07:40.072Z,3.80
2017-11-30T22:10:07.661Z,3.80
2017-11-30T22:12:35.308Z,3.80
2017-11-30T22:15:03.122Z,3.80
2017-11-30T22:17:31.306Z,3.80
2017-11-30T22:20:00.655Z,3.80
2017-11-30T22:22:28.431Z,3.80
2017-11-30T22:24:56.115Z,3.90
2017-11-30T22:27:24.356Z,4.00
2017-11-30T22:29:52.133Z,3.90
2017-11-30T22:32:20.085Z,3.90
2017-11-30T22:34:47.702Z,3.80
2017-11-30T22:37:15.529Z,3.80
2017-11-30T22:39:43.088Z,3.80
2017-11-30T22:42:11.699Z,3.80
2017-11-30T22:44:39.456Z,3.80
2017-11-30T22:47:07.008Z,3.70
2017-11-30T22:49:34.566Z,3.70
2017-11-30T22:52:02.333Z,3.60
2017-11-30T22:54:30.443Z,3.60
2017-11-30T22:56:58.161Z,3.50
2017-11-30T22:59:25.774Z,3.50
2017-11-30T23:01:53.484Z,3.40
2017-11-30T23:04:21.030Z,3.40
2017-11-30T23:06:48.651Z,3.30
2017-11-30T23:09:18.264Z,3.30
2017-11-30T23:11:46.767Z,3.20
2017-11-30T23:14:15.589Z,3.10
2017-11-30T23:16:43.522Z,3.10
2017-11-30T23:19:11.250Z,3.10
2017-11-30T23:21:38.810Z,3.10
2017-11-30T23:24:07.084Z,3.10
2017-11-30T23:26:35.031Z,3.10
2017-11-30T23:29:02.602Z,3.10
2017-11-30T23:31:30.217Z,3.10
2017-11-30T23:33:58.534Z,3.10
2017-11-30T23:36:27.615Z,3.10
2017-11-30T23:38:56.302Z,3.10
2017-11-30T23:41:23.921Z,3.10
2017-11-30T23:43:52.239Z,3.20
2017-11-30T23:46:20.043Z,3.10
2017-11-30T23:48:47.591Z,3.20
2017-11-30T23:51:15.238Z,3.20
2017-11-30T23:53:42.918Z,3.30
2017-11-30T23:56:10.552Z,3.30
2017-11-30T23:58:38.254Z,3.40
